createdAt,value
2022-11-30T00:00:22.285Z,102318.00
2022-11-30T00:02:55.302Z,102315.00
2022-11-30T00:05:22.567Z,102307.00
2022-11-30T00:07:50.002Z,102311.00
2022-11-30T00:10:17.080Z,102300.00
2022-11-30T00:12:43.876Z,102309.00
2022-11-30T00:15:14.788Z,102308.00
2022-11-30T00:17:41.531Z,102305.00
2022-11-30T00:20:09.066Z,102301.00
2022-11-30T00:22:36.017Z,102306.00
2022-11-30T00:25:04.751Z,102292.00
2022-11-30T00:27:32.081Z,102294.00
2022-11-30T00:29:59.190Z,102295.00
2022-11-30T00:32:27.007Z,102290.00
2022-11-30T00:34:53.613Z,102299.00
2022-11-30T00:37:21.009Z,102301.00
2022-11-30T00:39:47.872Z,102299.00
2022-11-30T00:42:17.056Z,102294.00
2022-11-30T00:44:43.791Z,102293.00
2022-11-30T00:47:10.513Z,102294.00
2022-11-30T00:49:37.154Z,102295.00
2022-11-30T00:52:03.990Z,102293.00
2022-11-30T00:54:30.664Z,102289.00
2022-11-30T00:56:57.240Z,102289.00
2022-11-30T00:59:23.831Z,102287.00
2022-11-30T01:01:50.442Z,102287.00
2022-11-30T01:04:17.077Z,102280.00
2022-11-30T01:06:43.663Z,102284.00
2022-11-30T01:09:10.228Z,102271.00
2022-11-30T01:11:36.849Z,102272.00
2022-11-30T01:14:04.158Z,102275.00
2022-11-30T01:16:32.895Z,102277.00
2022-11-30T01:19:00.489Z,102283.00
2022-11-30T01:21:28.672Z,102289.00
2022-11-30T01:23:55.768Z,102281.00
2022-11-30T01:26:23.528Z,102279.00
2022-11-30T01:28:52.143Z,102274.00
2022-11-30T01:31:19.244Z,102278.00
2022-11-30T01:33:53.176Z,102288.00
2022-11-30T01:36:22.307Z,102291.00
2022-11-30T01:38:51.061Z,102292.00
2022-11-30T01:41:29.911Z,102301.00
2022-11-30T01:44:05.643Z,102306.00
2022-11-30T01:46:38.329Z,102300.00
2022-11-30T01:49:10.740Z,102315.00
2022-11-30T01:51:51.684Z,102308.00
2022-11-30T01:54:26.526Z,102297.00
2022-11-30T01:56:59.922Z,102306.00
2022-11-30T01:59:26.834Z,102302.00
2022-11-30T02:01:54.225Z,102303.00
2022-11-30T02:04:27.920Z,102308.00
2022-11-30T02:06:56.139Z,102306.00
2022-11-30T02:09:23.627Z,102303.00
2022-11-30T02:11:50.776Z,102305.00
2022-11-30T02:14:40.405Z,102314.00
2022-11-30T02:17:21.967Z,102314.00
2022-11-30T02:20:03.455Z,102311.00
2022-11-30T02:23:12.001Z,102326.00
2022-11-30T02:25:44.434Z,102330.00
2022-11-30T02:28:42.123Z,102326.00
2022-11-30T02:31:13.309Z,102317.00
2022-11-30T02:33:41.157Z,102316.00
2022-11-30T02:36:09.878Z,102312.00
2022-11-30T02:38:38.115Z,102325.00
2022-11-30T02:41:04.828Z,102323.00
2022-11-30T02:43:32.384Z,102325.00
2022-11-30T02:46:08.143Z,102324.00
2022-11-30T02:48:44.359Z,102327.00
2022-11-30T02:51:14.731Z,102325.00
2022-11-30T02:53:42.018Z,102326.00
2022-11-30T02:56:08.736Z,102319.00
2022-11-30T02:58:35.877Z,102319.00
2022-11-30T03:01:02.536Z,102321.00
2022-11-30T03:03:29.099Z,102313.00
2022-11-30T03:05:55.654Z,102311.00
2022-11-30T03:08:22.328Z,102311.00
2022-11-30T03:10:48.870Z,102319.00
2022-11-30T03:13:15.449Z,102322.00
2022-11-30T03:15:42.170Z,102325.00
2022-11-30T03:18:08.904Z,102318.00
2022-11-30T03:20:35.474Z,102315.00
2022-11-30T03:23:02.668Z,102321.00
2022-11-30T03:25:29.618Z,102314.00
2022-11-30T03:27:56.202Z,102314.00
2022-11-30T03:30:22.800Z,102319.00
2022-11-30T03:32:51.040Z,102321.00
2022-11-30T03:35:17.771Z,102316.00
2022-11-30T03:37:44.879Z,102310.00
2022-11-30T03:40:11.822Z,102319.00
2022-11-30T03:42:38.409Z,102320.00
2022-11-30T03:45:05.870Z,102317.00
2022-11-30T03:47:32.511Z,102326.00
2022-11-30T03:49:59.134Z,102326.00
2022-11-30T03:52:25.761Z,102321.00
2022-11-30T03:54:52.350Z,102330.00
2022-11-30T03:57:19.524Z,102332.00
2022-11-30T03:59:46.096Z,102331.00
2022-11-30T04:02:12.714Z,102328.00
2022-11-30T04:04:39.958Z,102323.00
2022-11-30T04:07:06.543Z,102327.00
2022-11-30T04:09:33.056Z,102328.00
2022-11-30T04:11:59.647Z,102330.00
2022-11-30T04:14:26.191Z,102330.00
2022-11-30T04:16:52.818Z,102335.00
2022-11-30T04:19:19.379Z,102330.00
2022-11-30T04:21:45.929Z,102341.00
2022-11-30T04:24:12.491Z,102338.00
2022-11-30T04:26:39.447Z,102337.00
2022-11-30T04:29:06.041Z,102348.00
2022-11-30T04:31:32.670Z,102345.00
2022-11-30T04:33:59.334Z,102346.00
2022-11-30T04:36:25.883Z,102352.00
2022-11-30T04:38:52.492Z,102348.00
2022-11-30T04:41:19.068Z,102356.00
2022-11-30T04:43:45.705Z,102353.00
2022-11-30T04:46:12.740Z,102354.00
2022-11-30T04:48:39.411Z,102351.00
2022-11-30T04:51:08.144Z,102353.00
2022-11-30T04:53:36.519Z,102356.00
2022-11-30T04:56:07.384Z,102359.00
2022-11-30T04:58:34.479Z,102356.00
2022-11-30T05:01:01.211Z,102350.00
2022-11-30T05:03:27.992Z,102355.00
2022-11-30T05:05:54.554Z,102355.00
2022-11-30T05:08:21.203Z,102356.00
2022-11-30T05:10:53.430Z,102358.00
2022-11-30T05:13:22.974Z,102350.00
2022-11-30T05:15:49.658Z,102364.00
2022-11-30T05:18:16.375Z,102365.00
2022-11-30T05:20:48.189Z,102369.00
2022-11-30T05:23:15.719Z,102358.00
2022-11-30T05:25:42.756Z,102356.00
2022-11-30T05:28:09.631Z,102362.00
2022-11-30T05:30:36.238Z,102366.00
2022-11-30T05:33:02.863Z,102370.00
2022-11-30T05:35:29.429Z,102367.00
2022-11-30T05:37:56.017Z,102364.00
2022-11-30T05:40:22.661Z,102368.00
2022-11-30T05:42:56.013Z,102367.00
2022-11-30T05:45:22.756Z,102367.00
2022-11-30T05:47:49.425Z,102359.00
2022-11-30T05:50:16.118Z,102364.00
2022-11-30T05:52:43.065Z,102364.00
2022-11-30T05:55:10.219Z,102367.00
2022-11-30T05:57:38.316Z,102371.00
2022-11-30T06:00:09.536Z,102376.00
2022-11-30T06:02:36.269Z,102384.00
2022-11-30T06:05:03.101Z,102391.00
2022-11-30T06:07:29.891Z,102388.00
2022-11-30T06:09:56.520Z,102377.00
2022-11-30T06:12:23.084Z,102383.00
2022-11-30T06:14:50.983Z,102387.00
2022-11-30T06:17:17.832Z,102384.00
2022-11-30T06:19:44.491Z,102370.00
2022-11-30T06:22:11.051Z,102373.00
2022-11-30T06:24:37.610Z,102381.00
2022-11-30T06:27:04.453Z,102389.00
2022-11-30T06:29:31.024Z,102393.00
2022-11-30T06:31:58.089Z,102394.00
2022-11-30T06:34:24.755Z,102387.00
2022-11-30T06:36:51.335Z,102399.00
2022-11-30T06:39:31.403Z,102395.00
2022-11-30T06:42:04.953Z,102402.00
2022-11-30T06:44:31.528Z,102401.00
2022-11-30T06:46:58.086Z,102400.00
2022-11-30T06:49:24.670Z,102390.00
2022-11-30T06:51:51.318Z,102387.00
2022-11-30T06:54:17.889Z,102401.00
2022-11-30T06:56:44.485Z,102412.00
2022-11-30T06:59:11.045Z,102426.00
2022-11-30T07:01:37.593Z,102415.00
2022-11-30T07:04:04.427Z,102409.00
2022-11-30T07:06:30.988Z,102417.00
2022-11-30T07:08:57.606Z,102411.00
2022-11-30T07:11:24.177Z,102415.00
2022-11-30T07:13:50.858Z,102414.00
2022-11-30T07:16:17.484Z,102410.00
2022-11-30T07:18:44.018Z,102411.00
2022-11-30T07:21:11.301Z,102410.00
2022-11-30T07:23:57.217Z,102414.00
2022-11-30T07:26:25.008Z,102410.00
2022-11-30T07:28:58.242Z,102415.00
2022-11-30T07:31:27.686Z,102414.00
2022-11-30T07:33:55.548Z,102421.00
2022-11-30T07:36:23.745Z,102418.00
2022-11-30T07:38:50.465Z,102427.00
2022-11-30T07:41:17.336Z,102422.00
2022-11-30T07:43:44.124Z,102425.00
2022-11-30T07:46:13.264Z,102429.00
2022-11-30T07:48:40.387Z,102423.00
2022-11-30T07:51:10.330Z,102431.00
2022-11-30T07:53:36.825Z,102431.00
2022-11-30T07:56:08.937Z,102438.00
2022-11-30T07:58:35.751Z,102446.00
2022-11-30T08:01:08.090Z,102453.00
2022-11-30T08:03:37.329Z,102462.00
2022-11-30T08:06:12.988Z,102466.00
2022-11-30T08:08:41.906Z,102470.00
2022-11-30T08:11:10.825Z,102465.00
2022-11-30T08:13:37.440Z,102461.00
2022-11-30T08:16:10.357Z,102479.00
2022-11-30T08:18:37.255Z,102482.00
2022-11-30T08:21:06.545Z,102481.00
2022-11-30T08:23:36.708Z,102480.00
2022-11-30T08:26:09.886Z,102473.00
2022-11-30T08:28:36.437Z,102485.00
2022-11-30T08:31:06.958Z,102489.00
2022-11-30T08:33:35.083Z,102485.00
2022-11-30T08:36:22.216Z,102494.00
2022-11-30T08:38:49.186Z,102491.00
2022-11-30T08:41:21.488Z,102490.00
2022-11-30T08:43:49.104Z,102480.00
2022-11-30T08:49:20.851Z,102479.00
2022-11-30T08:54:36.532Z,102488.00
2022-11-30T08:57:03.279Z,102486.00
2022-11-30T08:59:31.482Z,102478.00
2022-11-30T09:01:58.024Z,102476.00
2022-11-30T09:04:24.585Z,102475.00
2022-11-30T09:06:51.156Z,102478.00
2022-11-30T09:09:17.710Z,102485.00
2022-11-30T09:11:44.441Z,102472.00
2022-11-30T09:14:11.258Z,102490.00
2022-11-30T09:16:37.924Z,102485.00
2022-11-30T09:19:04.616Z,102506.00
2022-11-30T09:21:31.338Z,102503.00
2022-11-30T09:23:57.938Z,102506.00
2022-11-30T09:26:25.663Z,102505.00
2022-11-30T09:28:53.769Z,102520.00
2022-11-30T09:31:26.501Z,102524.00
2022-11-30T09:33:55.142Z,102526.00
2022-11-30T09:36:22.940Z,102531.00
2022-11-30T09:38:49.795Z,102530.00
2022-11-30T09:41:28.543Z,102526.00
2022-11-30T09:44:13.674Z,102525.00
2022-11-30T09:46:46.308Z,102520.00
2022-11-30T09:49:25.078Z,102531.00
2022-11-30T09:51:54.689Z,102519.00
2022-11-30T09:54:43.166Z,102525.00
2022-11-30T09:57:33.972Z,102530.00
2022-11-30T10:00:10.583Z,102530.00
2022-11-30T10:02:38.723Z,102522.00
2022-11-30T10:05:35.731Z,102535.00
2022-11-30T10:08:17.699Z,102542.00
2022-11-30T10:11:22.202Z,102534.00
2022-11-30T10:14:03.974Z,102537.00
2022-11-30T10:16:45.380Z,102532.00
2022-11-30T10:19:46.763Z,102526.00
2022-11-30T10:22:46.288Z,102526.00
2022-11-30T10:25:41.633Z,102534.00
2022-11-30T10:28:47.105Z,102510.00
2022-11-30T10:31:17.683Z,102521.00
2022-11-30T10:33:50.988Z,102521.00
2022-11-30T10:36:48.198Z,102519.00
2022-11-30T10:39:24.559Z,102530.00
2022-11-30T10:42:04.252Z,102524.00
2022-11-30T10:44:35.313Z,102528.00
2022-11-30T10:47:10.512Z,102524.00
2022-11-30T10:49:41.475Z,102522.00
2022-11-30T10:52:09.588Z,102523.00
2022-11-30T10:54:37.062Z,102520.00
2022-11-30T10:57:06.233Z,102510.00
2022-11-30T10:59:50.750Z,102514.00
2022-11-30T11:02:50.384Z,102509.00
2022-11-30T11:05:24.117Z,102515.00
2022-11-30T11:08:01.195Z,102505.00
2022-11-30T11:10:35.105Z,102496.00
2022-11-30T11:13:01.771Z,102505.00
2022-11-30T11:15:33.530Z,102515.00
2022-11-30T11:18:22.861Z,102503.00
2022-11-30T11:21:06.774Z,102504.00
2022-11-30T11:23:41.728Z,102500.00
2022-11-30T11:26:20.252Z,102498.00
2022-11-30T11:28:52.395Z,102488.00
2022-11-30T11:31:42.780Z,102492.00
2022-11-30T11:34:28.215Z,102495.00
2022-11-30T11:37:16.412Z,102496.00
2022-11-30T11:39:43.184Z,102490.00
2022-11-30T11:42:22.375Z,102492.00
2022-11-30T11:44:54.771Z,102483.00
2022-11-30T11:47:40.662Z,102481.00
2022-11-30T11:50:13.374Z,102477.00
2022-11-30T11:52:39.985Z,102480.00
2022-11-30T11:55:15.572Z,102484.00
2022-11-30T11:57:50.164Z,102488.00
2022-11-30T12:00:21.625Z,102484.00
2022-11-30T12:03:04.442Z,102485.00
2022-11-30T12:05:42.933Z,102488.00
2022-11-30T12:08:38.112Z,102491.00
2022-11-30T12:11:22.976Z,102487.00
2022-11-30T12:13:50.202Z,102480.00
2022-11-30T12:16:31.748Z,102492.00
2022-11-30T12:19:15.528Z,102491.00
2022-11-30T12:22:00.865Z,102490.00
2022-11-30T12:24:42.328Z,102493.00
2022-11-30T12:27:50.493Z,102485.00
2022-11-30T12:31:04.825Z,102492.00
2022-11-30T12:34:03.289Z,102497.00
2022-11-30T12:36:45.219Z,102492.00
2022-11-30T12:39:53.674Z,102489.00
2022-11-30T12:42:47.440Z,102489.00
2022-11-30T12:45:37.271Z,102489.00
2022-11-30T12:48:23.070Z,102490.00
2022-11-30T12:51:13.624Z,102490.00
2022-11-30T12:53:58.908Z,102498.00
2022-11-30T12:57:01.359Z,102493.00
2022-11-30T12:59:40.084Z,102490.00
2022-11-30T13:02:31.487Z,102493.00
2022-11-30T13:05:06.686Z,102500.00
2022-11-30T13:08:03.580Z,102493.00
2022-11-30T13:10:40.563Z,102494.00
2022-11-30T13:13:13.596Z,102490.00
2022-11-30T13:15:40.676Z,102494.00
2022-11-30T13:18:09.729Z,102504.00
2022-11-30T13:20:54.611Z,102500.00
2022-11-30T13:23:28.826Z,102498.00
2022-11-30T13:26:16.319Z,102499.00
2022-11-30T13:28:42.920Z,102504.00
2022-11-30T13:32:27.945Z,102509.00
2022-11-30T13:35:28.447Z,102509.00
2022-11-30T13:38:36.348Z,102509.00
2022-11-30T13:40:58.130Z,102507.00
2022-11-30T13:43:26.388Z,102512.00
2022-11-30T13:46:13.111Z,102498.00
2022-11-30T13:48:42.939Z,102496.00
2022-11-30T13:51:10.478Z,102501.00
2022-11-30T13:53:39.083Z,102507.00
2022-11-30T13:56:17.826Z,102518.00
2022-11-30T13:59:19.453Z,102513.00
2022-11-30T14:01:46.363Z,102521.00
2022-11-30T14:04:16.052Z,102519.00
2022-11-30T14:06:42.613Z,102521.00
2022-11-30T14:09:17.279Z,102525.00
2022-11-30T14:11:45.028Z,102520.00
2022-11-30T14:14:46.801Z,102522.00
2022-11-30T14:17:17.008Z,102517.00
2022-11-30T14:19:46.262Z,102514.00
2022-11-30T14:22:14.602Z,102519.00
2022-11-30T14:24:45.329Z,102517.00
2022-11-30T14:27:28.691Z,102516.00
2022-11-30T14:30:01.785Z,102512.00
2022-11-30T14:32:38.045Z,102512.00
2022-11-30T14:35:14.314Z,102520.00
2022-11-30T14:37:51.374Z,102522.00
2022-11-30T14:40:20.191Z,102520.00
2022-11-30T14:42:49.723Z,102521.00
2022-11-30T14:45:21.123Z,102520.00
2022-11-30T14:47:52.843Z,102530.00
2022-11-30T14:50:26.680Z,102520.00
2022-11-30T14:53:04.958Z,102531.00
2022-11-30T14:55:33.470Z,102525.00
2022-11-30T14:58:15.155Z,102524.00
2022-11-30T15:00:44.936Z,102528.00
2022-11-30T15:03:26.172Z,102519.00
2022-11-30T15:05:58.764Z,102522.00
2022-11-30T15:08:32.868Z,102522.00
2022-11-30T15:11:05.375Z,102531.00
2022-11-30T15:13:32.632Z,102541.00
2022-11-30T15:15:59.224Z,102530.00
2022-11-30T15:18:26.129Z,102536.00
2022-11-30T15:21:00.883Z,102535.00
2022-11-30T15:23:27.701Z,102540.00
2022-11-30T15:26:11.529Z,102535.00
2022-11-30T15:28:41.538Z,102535.00
2022-11-30T15:31:12.617Z,102534.00
2022-11-30T15:33:46.007Z,102541.00
2022-11-30T15:36:27.809Z,102530.00
2022-11-30T15:39:01.582Z,102540.00
2022-11-30T15:41:28.204Z,102545.00
2022-11-30T15:43:57.097Z,102542.00
2022-11-30T15:46:31.009Z,102539.00
2022-11-30T15:49:10.743Z,102535.00
2022-11-30T15:51:40.078Z,102535.00
2022-11-30T15:54:06.937Z,102542.00
2022-11-30T15:56:33.776Z,102534.00
2022-11-30T15:59:23.048Z,102545.00
2022-11-30T16:02:08.256Z,102552.00
2022-11-30T16:04:56.721Z,102555.00
2022-11-30T16:07:32.282Z,102557.00
2022-11-30T16:10:07.528Z,102559.00
2022-11-30T16:12:34.218Z,102550.00
2022-11-30T16:15:01.271Z,102554.00
2022-11-30T16:17:28.949Z,102549.00
2022-11-30T16:19:55.682Z,102553.00
2022-11-30T16:22:22.226Z,102553.00
2022-11-30T16:24:48.846Z,102551.00
2022-11-30T16:27:20.208Z,102561.00
2022-11-30T16:29:52.077Z,102560.00
2022-11-30T16:32:19.412Z,102560.00
2022-11-30T16:34:47.856Z,102554.00
2022-11-30T16:37:14.848Z,102561.00
2022-11-30T16:39:41.523Z,102563.00
2022-11-30T16:42:12.575Z,102565.00
2022-11-30T16:44:39.181Z,102567.00
2022-11-30T16:47:05.747Z,102575.00
2022-11-30T16:49:32.318Z,102572.00
2022-11-30T16:51:58.935Z,102570.00
2022-11-30T16:54:25.531Z,102577.00
2022-11-30T16:56:53.319Z,102574.00
2022-11-30T16:59:20.027Z,102574.00
2022-11-30T17:01:52.857Z,102587.00
2022-11-30T17:04:26.066Z,102583.00
2022-11-30T17:06:58.815Z,102597.00
2022-11-30T17:09:30.392Z,102591.00
2022-11-30T17:11:57.238Z,102588.00
2022-11-30T17:14:23.838Z,102592.00
2022-11-30T17:16:50.566Z,102595.00
2022-11-30T17:19:17.188Z,102597.00
2022-11-30T17:21:44.794Z,102593.00
2022-11-30T17:24:11.982Z,102593.00
2022-11-30T17:26:38.611Z,102587.00
2022-11-30T17:29:05.216Z,102589.00
2022-11-30T17:31:32.599Z,102599.00
2022-11-30T17:33:59.275Z,102605.00
2022-11-30T17:36:26.849Z,102601.00
2022-11-30T17:38:53.562Z,102596.00
2022-11-30T17:41:21.939Z,102592.00
2022-11-30T17:43:49.411Z,102597.00
2022-11-30T17:46:18.026Z,102605.00
2022-11-30T17:48:44.784Z,102603.00
2022-11-30T17:51:12.045Z,102596.00
2022-11-30T17:53:39.831Z,102598.00
2022-11-30T17:56:09.365Z,102603.00
2022-11-30T17:58:43.421Z,102604.00
2022-11-30T18:01:18.706Z,102603.00
2022-11-30T18:03:45.685Z,102601.00
2022-11-30T18:06:12.702Z,102610.00
2022-11-30T18:08:40.264Z,102609.00
2022-11-30T18:11:12.492Z,102599.00
2022-11-30T18:13:39.672Z,102598.00
2022-11-30T18:16:15.583Z,102602.00
2022-11-30T18:18:47.293Z,102596.00
2022-11-30T18:21:17.142Z,102600.00
2022-11-30T18:23:43.781Z,102603.00
2022-11-30T18:26:19.306Z,102608.00
2022-11-30T18:28:46.952Z,102598.00
2022-11-30T18:31:13.667Z,102605.00
2022-11-30T18:33:40.369Z,102611.00
2022-11-30T18:36:07.815Z,102609.00
2022-11-30T18:38:38.100Z,102617.00
2022-11-30T18:41:06.395Z,102619.00
2022-11-30T18:43:34.142Z,102623.00
2022-11-30T18:46:05.875Z,102623.00
2022-11-30T18:48:32.692Z,102622.00
2022-11-30T18:50:59.369Z,102635.00
2022-11-30T18:53:25.938Z,102629.00
2022-11-30T18:55:52.578Z,102635.00
2022-11-30T18:58:19.189Z,102629.00
2022-11-30T19:00:45.734Z,102627.00
2022-11-30T19:03:12.348Z,102625.00
2022-11-30T19:05:40.566Z,102629.00
2022-11-30T19:08:10.663Z,102628.00
2022-11-30T19:10:39.752Z,102630.00
2022-11-30T19:13:07.509Z,102632.00
2022-11-30T19:15:41.799Z,102635.00
2022-11-30T19:18:10.394Z,102648.00
2022-11-30T19:20:40.909Z,102639.00
2022-11-30T19:23:07.717Z,102651.00
2022-11-30T19:25:34.299Z,102650.00
2022-11-30T19:28:00.819Z,102654.00
2022-11-30T19:30:27.461Z,102662.00
2022-11-30T19:32:54.120Z,102658.00
2022-11-30T19:35:22.994Z,102663.00
2022-11-30T19:37:51.893Z,102675.00
2022-11-30T19:40:18.665Z,102670.00
2022-11-30T19:42:45.318Z,102674.00
2022-11-30T19:45:11.967Z,102680.00
2022-11-30T19:47:38.574Z,102682.00
2022-11-30T19:50:05.679Z,102683.00
2022-11-30T19:52:32.268Z,102685.00
2022-11-30T19:54:58.810Z,102683.00
2022-11-30T19:57:25.372Z,102689.00
2022-11-30T19:59:51.932Z,102681.00
2022-11-30T20:02:18.653Z,102683.00
2022-11-30T20:04:45.538Z,102688.00
2022-11-30T20:07:14.947Z,102686.00
2022-11-30T20:09:41.537Z,102689.00
2022-11-30T20:12:08.209Z,102695.00
2022-11-30T20:14:35.436Z,102698.00
2022-11-30T20:17:02.030Z,102700.00
2022-11-30T20:19:28.621Z,102696.00
2022-11-30T20:21:55.338Z,102706.00
2022-11-30T20:24:21.962Z,102699.00
2022-11-30T20:26:48.588Z,102706.00
2022-11-30T20:29:16.859Z,102701.00
2022-11-30T20:31:46.064Z,102707.00
2022-11-30T20:34:12.620Z,102707.00
2022-11-30T20:36:39.283Z,102706.00
2022-11-30T20:39:06.429Z,102702.00
2022-11-30T20:41:34.115Z,102704.00
2022-11-30T20:44:00.725Z,102703.00
2022-11-30T20:46:32.833Z,102697.00
2022-11-30T20:49:00.881Z,102701.00
2022-11-30T20:51:33.488Z,102697.00
2022-11-30T20:54:02.913Z,102701.00
2022-11-30T20:56:29.621Z,102696.00
2022-11-30T20:58:56.256Z,102709.00
2022-11-30T21:01:23.592Z,102708.00
2022-11-30T21:03:50.405Z,102706.00
2022-11-30T21:06:17.416Z,102704.00
2022-11-30T21:08:44.509Z,102706.00
2022-11-30T21:11:16.607Z,102709.00
2022-11-30T21:13:44.441Z,102706.00
2022-11-30T21:16:12.174Z,102711.00
2022-11-30T21:18:41.136Z,102701.00
2022-11-30T21:21:12.324Z,102704.00
2022-11-30T21:23:39.250Z,102700.00
2022-11-30T21:26:08.461Z,102708.00
2022-11-30T21:28:38.275Z,102710.00
2022-11-30T21:31:05.487Z,102711.00
2022-11-30T21:33:32.358Z,102717.00
2022-11-30T21:35:58.911Z,102715.00
2022-11-30T21:38:25.468Z,102718.00
2022-11-30T21:40:59.042Z,102713.00
2022-11-30T21:43:26.372Z,102711.00
2022-11-30T21:46:04.332Z,102717.00
2022-11-30T21:48:34.097Z,102710.00
2022-11-30T21:51:09.329Z,102704.00
2022-11-30T21:53:43.893Z,102708.00
2022-11-30T21:56:13.023Z,102718.00
2022-11-30T21:58:41.080Z,102717.00
2022-11-30T22:01:14.927Z,102718.00
2022-11-30T22:03:41.804Z,102726.00
2022-11-30T22:06:10.624Z,102726.00
2022-11-30T22:08:37.883Z,102727.00
2022-11-30T22:11:09.766Z,102722.00
2022-11-30T22:13:37.173Z,102737.00
2022-11-30T22:16:12.378Z,102722.00
2022-11-30T22:18:39.514Z,102721.00
2022-11-30T22:21:27.722Z,102729.00
2022-11-30T22:23:59.132Z,102731.00
2022-11-30T22:26:26.903Z,102735.00
2022-11-30T22:28:57.276Z,102740.00
2022-11-30T22:31:27.026Z,102739.00
2022-11-30T22:33:53.776Z,102739.00
2022-11-30T22:36:22.499Z,102748.00
2022-11-30T22:38:56.136Z,102737.00
2022-11-30T22:41:23.208Z,102740.00
2022-11-30T22:43:50.190Z,102735.00
2022-11-30T22:46:19.835Z,102744.00
2022-11-30T22:48:47.603Z,102734.00
2022-11-30T22:51:23.946Z,102738.00
2022-11-30T22:53:51.984Z,102738.00
2022-11-30T22:56:24.467Z,102743.00
2022-11-30T22:58:54.212Z,102736.00
2022-11-30T23:01:23.647Z,102743.00
2022-11-30T23:03:53.305Z,102738.00
2022-11-30T23:06:21.193Z,102735.00
2022-11-30T23:08:48.982Z,102739.00
2022-11-30T23:11:18.679Z,102741.00
2022-11-30T23:13:45.458Z,102740.00
2022-11-30T23:16:13.898Z,102743.00
2022-11-30T23:18:46.626Z,102736.00
2022-11-30T23:21:15.760Z,102737.00
2022-11-30T23:23:43.796Z,102746.00
2022-11-30T23:26:17.464Z,102750.00
2022-11-30T23:28:45.098Z,102754.00
2022-11-30T23:31:32.433Z,102751.00
2022-11-30T23:34:02.500Z,102744.00
2022-11-30T23:36:29.262Z,102754.00
2022-11-30T23:39:02.206Z,102756.00
2022-11-30T23:41:28.891Z,102744.00
2022-11-30T23:43:55.529Z,102754.00
2022-11-30T23:46:22.210Z,102750.00
2022-11-30T23:48:48.941Z,102762.00
2022-11-30T23:51:15.653Z,102755.00
2022-11-30T23:53:42.574Z,102755.00
2022-11-30T23:56:16.695Z,102746.00
2022-11-30T23:58:43.408Z,102751.00
